Time;durP1;ratioP1;P1;durP2;ratioP2;P2;SDS_P1;SDS_P2;PMS_P1;PMS_P2;Temp;Humidity;BMP_temperature;BMP_pressure;BME280_temperature;BME280_humidity;BME280_pressure;Samples;Min_cycle;Max_cycle;Signal;HPM_P1;HPM_P2
2023/08/12 00:00:49;;;;;;;8.15;3.50;;;;;;;-144.73;100.00;54376.91;4966182;28;20023;-74
2023/08/12 00:03:15;;;;;;;12.48;4.32;;;;;;;-144.73;100.00;54346.13;4972008;28;20113;-74
2023/08/12 00:05:42;;;;;;;5.75;3.50;;;;;;;-144.73;100.00;54350.22;4971709;28;20113;-74
2023/08/12 00:08:08;;;;;;;12.70;4.32;;;;;;;-144.73;100.00;54387.19;4972120;28;20038;-73
2023/08/12 00:10:34;;;;;;;8.30;3.70;;;;;;;-144.73;100.00;54362.53;4973669;28;20038;-74
2023/08/12 00:12:59;;;;;;;7.43;3.63;;;;;;;-144.73;100.00;54362.53;4977523;28;20027;-73
2023/08/12 00:15:25;;;;;;;7.25;3.67;;;;;;;-144.73;100.00;54370.75;4981804;28;20054;-73
2023/08/12 00:17:52;;;;;;;8.10;3.75;;;;;;;-144.73;100.00;54370.75;4985872;28;20436;-73
2023/08/12 00:20:17;;;;;;;8.32;3.33;;;;;;;-144.73;100.00;54354.34;4986971;28;20114;-75
2023/08/12 00:22:43;;;;;;;8.48;3.88;;;;;;;-144.73;100.00;54364.59;4985213;28;20134;-73
2023/08/12 00:25:09;;;;;;;12.95;3.72;;;;;;;-144.73;100.00;54366.66;4980039;28;20038;-73
2023/08/12 00:27:34;;;;;;;5.78;3.17;;;;;;;-144.73;100.00;54354.34;4985424;28;20026;-72
2023/08/12 00:29:59;;;;;;;8.10;3.60;;;;;;;-144.73;100.00;54383.06;4974211;28;20031;-73
2023/08/12 00:32:25;;;;;;;9.82;3.90;;;;;;;-144.73;100.00;54346.13;4984100;28;20600;-73
2023/08/12 00:34:50;;;;;;;8.07;3.58;;;;;;;-144.73;100.00;54387.19;4983347;28;20026;-73
2023/08/12 00:37:16;;;;;;;6.20;3.45;;;;;;;-144.73;100.00;54329.72;4978689;28;20350;-77
2023/08/12 00:39:41;;;;;;;14.82;4.38;;;;;;;-144.73;100.00;54374.84;4980837;28;20094;-76
2023/08/12 00:42:07;;;;;;;8.43;4.05;;;;;;;-144.73;100.00;54395.38;4983530;28;20023;-76
2023/08/12 00:44:32;;;;;;;11.20;3.78;;;;;;;-144.73;100.00;54374.84;4982819;28;20037;-79
2023/08/12 00:46:58;;;;;;;8.15;3.83;;;;;;;-144.73;100.00;54387.19;4986894;28;20037;-77
2023/08/12 00:49:25;;;;;;;8.35;3.60;;;;;;;-144.73;100.00;54383.06;4982561;28;20462;-80
2023/08/12 00:51:52;;;;;;;8.55;3.72;;;;;;;-144.73;100.00;54374.84;4985575;28;20018;-78
2023/08/12 00:54:20;;;;;;;13.48;3.92;;;;;;;-144.73;100.00;54366.66;4983484;28;20082;-80
2023/08/12 00:56:48;;;;;;;9.15;3.80;;;;;;;-144.73;100.00;54370.75;4983549;28;20026;-77
2023/08/12 00:59:14;;;;;;;9.65;3.63;;;;;;;-144.73;100.00;54329.72;4979543;28;20066;-77
2023/08/12 01:01:43;;;;;;;8.55;3.78;;;;;;;-144.73;100.00;54356.38;4982856;28;20019;-78
2023/08/12 01:04:09;;;;;;;12.55;2.97;;;;;;;-144.73;100.00;54378.97;4977286;28;20031;-78
2023/08/12 01:06:35;;;;;;;10.32;2.95;;;;;;;-144.73;100.00;54383.06;4975011;28;20048;-78
2023/08/12 01:09:02;;;;;;;7.88;3.97;;;;;;;-144.73;100.00;54395.38;4978074;28;20029;-78
2023/08/12 01:11:39;;;;;;;6.05;3.10;;;;;;;-144.73;100.00;54436.44;4985525;28;20041;-78
2023/08/12 01:14:08;;;;;;;5.05;3.38;;;;;;;-144.73;100.00;54399.50;4970691;28;20454;-78
2023/08/12 01:16:38;;;;;;;13.70;3.50;;;;;;;-144.73;100.00;54360.50;4979597;28;20025;-79
2023/08/12 01:19:06;;;;;;;10.45;4.20;;;;;;;-144.73;100.00;54358.44;4985255;28;20038;-77
2023/08/12 01:21:33;;;;;;;6.00;2.90;;;;;;;-144.73;100.00;54397.44;4972700;28;20034;-76
2023/08/12 01:23:59;;;;;;;5.55;3.75;;;;;;;-144.73;100.00;54342.03;4982503;28;20026;-76
2023/08/12 01:26:24;;;;;;;9.85;3.20;;;;;;;-144.73;100.00;54407.69;4974869;28;20026;-77
2023/08/12 01:28:49;;;;;;;7.32;3.50;;;;;;;-144.73;100.00;54364.59;4982377;28;20042;-76
2023/08/12 01:31:34;;;;;;;10.00;3.33;;;;;;;-144.73;100.00;54362.53;4971850;28;20057;-76
2023/08/12 01:34:12;;;;;;;7.20;3.40;;;;;;;-144.73;100.00;54362.53;4969837;28;20046;-77
2023/08/12 01:36:40;;;;;;;10.25;3.95;;;;;;;-144.73;100.00;54370.75;4968766;28;20022;-77
2023/08/12 01:39:08;;;;;;;7.97;3.50;;;;;;;-144.73;100.00;54399.50;4967915;28;20114;-78
2023/08/12 01:41:35;;;;;;;7.20;3.20;;;;;;;-144.73;100.00;54370.75;4971600;28;20018;-78
2023/08/12 01:44:02;;;;;;;7.35;3.35;;;;;;;-144.73;100.00;54378.97;4982842;28;20105;-77
2023/08/12 01:46:28;;;;;;;6.18;3.58;;;;;;;-144.73;100.00;54387.19;4980977;28;20043;-76
2023/08/12 01:48:53;;;;;;;6.28;3.47;;;;;;;-144.73;100.00;54407.69;4978279;28;20026;-76
2023/08/12 01:51:18;;;;;;;7.00;2.90;;;;;;;-144.73;100.00;54358.44;4979470;28;20037;-75
2023/08/12 01:53:44;;;;;;;7.15;3.28;;;;;;;-144.73;100.00;54358.44;4984212;28;20034;-76
2023/08/12 01:56:09;;;;;;;5.25;3.03;;;;;;;-144.73;100.00;54420.00;4969838;28;20039;-76
2023/08/12 01:58:34;;;;;;;9.18;3.55;;;;;;;-144.73;100.00;54424.13;4972504;28;20027;-76
2023/08/12 02:01:00;;;;;;;9.75;3.00;;;;;;;-144.73;100.00;54366.66;4980995;28;20490;-75
2023/08/12 02:03:25;;;;;;;6.72;3.20;;;;;;;-144.73;100.00;54385.13;4981204;28;20022;-76
2023/08/12 02:05:50;;;;;;;11.18;3.90;;;;;;;-144.73;100.00;54378.97;4985082;28;20058;-76
2023/08/12 02:08:16;;;;;;;8.73;3.90;;;;;;;-144.73;100.00;54407.69;4984482;28;20057;-75
2023/08/12 02:10:41;;;;;;;7.90;4.00;;;;;;;-144.73;100.00;54354.34;4978304;28;20034;-75
2023/08/12 02:13:06;;;;;;;6.05;3.55;;;;;;;-144.73;100.00;54409.75;4978083;28;20035;-76
2023/08/12 02:15:32;;;;;;;10.55;3.90;;;;;;;-144.73;100.00;54383.06;4972092;28;20046;-74
2023/08/12 02:17:58;;;;;;;10.98;3.78;;;;;;;-144.73;100.00;54411.81;4978291;28;20033;-75
2023/08/12 02:20:24;;;;;;;8.10;3.60;;;;;;;-144.73;100.00;54428.22;4976032;28;20034;-74
2023/08/12 02:22:49;;;;;;;10.73;3.58;;;;;;;-144.73;100.00;54391.28;4970380;28;20027;-75
2023/08/12 02:25:15;;;;;;;8.05;3.45;;;;;;;-144.73;100.00;54428.22;4971386;28;20031;-75
2023/08/12 02:27:41;;;;;;;12.55;3.25;;;;;;;-144.73;100.00;54399.50;4971128;28;20022;-75
2023/08/12 02:30:07;;;;;;;6.72;3.42;;;;;;;-144.73;100.00;54395.38;4969250;28;20070;-74
2023/08/12 02:32:32;;;;;;;5.15;3.33;;;;;;;-144.73;100.00;54395.38;4967616;28;20046;-74
2023/08/12 02:34:58;;;;;;;5.07;3.33;;;;;;;-144.73;100.00;54378.97;4979140;28;20108;-75
2023/08/12 02:37:23;;;;;;;6.38;3.45;;;;;;;-144.73;100.00;54399.50;4983711;28;20022;-74
2023/08/12 02:39:48;;;;;;;6.90;3.30;;;;;;;-144.73;100.00;54333.81;4987059;28;20034;-75
2023/08/12 02:42:14;;;;;;;7.22;3.70;;;;;;;-144.73;100.00;54374.84;4987862;28;20022;-74
2023/08/12 02:44:39;;;;;;;11.52;3.70;;;;;;;-144.73;100.00;54370.75;4980214;28;20101;-73
2023/08/12 02:47:04;;;;;;;7.47;3.58;;;;;;;-144.73;100.00;54374.84;4971204;28;20038;-76
2023/08/12 02:49:30;;;;;;;8.77;3.83;;;;;;;-144.73;100.00;54383.06;4977368;28;20022;-73
2023/08/12 02:51:55;;;;;;;16.98;4.13;;;;;;;-144.73;100.00;54420.00;4970438;28;20027;-74
2023/08/12 02:54:21;;;;;;;13.80;3.85;;;;;;;-144.73;100.00;54413.84;4969287;28;20066;-76
2023/08/12 02:56:46;;;;;;;7.10;3.50;;;;;;;-144.73;100.00;54395.38;4971095;28;20477;-77
2023/08/12 02:59:11;;;;;;;8.43;3.63;;;;;;;-144.73;100.00;54420.00;4970286;28;20102;-76
2023/08/12 03:01:37;;;;;;;10.80;3.38;;;;;;;-144.73;100.00;54350.22;4976839;28;20022;-76
2023/08/12 03:04:02;;;;;;;8.18;3.70;;;;;;;-144.73;100.00;54407.69;4974800;28;20022;-76
2023/08/12 03:06:28;;;;;;;12.88;3.65;;;;;;;-144.73;100.00;54387.19;4981572;28;20018;-77
2023/08/12 03:08:53;;;;;;;12.50;3.88;;;;;;;-144.73;100.00;54407.69;4981336;28;20022;-77
2023/08/12 03:11:19;;;;;;;9.35;3.75;;;;;;;-144.73;100.00;54387.19;4972576;28;20031;-77
2023/08/12 03:13:45;;;;;;;10.32;3.80;;;;;;;-144.73;100.00;54362.53;4973219;28;20035;-77
2023/08/12 03:16:14;;;;;;;6.50;3.20;;;;;;;-144.73;100.00;54399.50;4972944;28;20057;-77
2023/08/12 03:18:39;;;;;;;4.82;3.03;;;;;;;-144.73;100.00;54438.50;4972753;28;20030;-77
2023/08/12 03:21:08;;;;;;;9.05;3.42;;;;;;;-144.73;100.00;54436.44;4972774;28;20398;-77
2023/08/12 03:23:37;;;;;;;7.75;3.42;;;;;;;-144.73;100.00;54415.91;4989320;28;20018;-77
2023/08/12 03:26:03;;;;;;;5.45;3.10;;;;;;;-144.73;100.00;54411.81;4973155;28;20034;-76
2023/08/12 03:28:30;;;;;;;8.13;3.55;;;;;;;-144.73;100.00;54383.06;4981557;28;20022;-77
2023/08/12 03:30:55;;;;;;;9.00;3.22;;;;;;;-144.73;100.00;54411.81;4979293;28;20035;-77
2023/08/12 03:33:21;;;;;;;5.80;3.00;;;;;;;-144.73;100.00;54399.50;4981924;28;20029;-77
2023/08/12 03:35:47;;;;;;;6.03;3.65;;;;;;;-144.73;100.00;54428.22;4979937;28;20054;-78
2023/08/12 03:38:13;;;;;;;4.60;3.17;;;;;;;-144.73;100.00;54407.69;4980475;28;20029;-78
2023/08/12 03:40:39;;;;;;;13.07;3.65;;;;;;;-144.73;100.00;54420.00;4973482;28;20031;-77
2023/08/12 03:43:05;;;;;;;4.28;3.08;;;;;;;-144.73;100.00;54426.16;4986186;28;20035;-77
2023/08/12 03:45:30;;;;;;;9.60;3.38;;;;;;;-144.73;100.00;54362.53;4972897;28;20039;-77
2023/08/12 03:47:55;;;;;;;16.50;4.35;;;;;;;-144.73;100.00;54362.53;4987484;28;20078;-77
2023/08/12 03:50:21;;;;;;;7.47;3.85;;;;;;;-144.73;100.00;54407.69;4983248;28;20042;-78
2023/08/12 03:52:46;;;;;;;7.68;3.92;;;;;;;-144.73;100.00;54385.13;4972373;28;20023;-76
2023/08/12 03:55:11;;;;;;;7.90;4.05;;;;;;;-144.73;100.00;54383.06;4971597;28;20041;-77
2023/08/12 03:57:37;;;;;;;14.55;4.25;;;;;;;-144.73;100.00;54370.75;4965303;28;20109;-77
2023/08/12 04:00:03;;;;;;;10.57;4.10;;;;;;;-144.73;100.00;54383.06;4976860;28;20065;-76
2023/08/12 04:02:29;;;;;;;6.03;3.78;;;;;;;-144.73;100.00;54383.06;4990868;28;20026;-77
2023/08/12 04:04:54;;;;;;;5.72;3.90;;;;;;;-144.73;100.00;54387.19;4975494;28;20038;-77
2023/08/12 04:07:20;;;;;;;17.48;4.38;;;;;;;-144.73;100.00;54368.69;4984124;28;20043;-77
2023/08/12 04:09:45;;;;;;;7.18;3.63;;;;;;;-144.73;100.00;54407.69;4982300;28;20045;-77
2023/08/12 04:12:10;;;;;;;4.75;3.85;;;;;;;-144.73;100.00;54397.44;4983519;28;20033;-77
2023/08/12 04:14:36;;;;;;;10.52;4.30;;;;;;;-144.73;100.00;54350.22;4982687;28;20026;-76
2023/08/12 04:17:01;;;;;;;12.15;4.20;;;;;;;-144.73;100.00;54395.38;4983734;28;20038;-77
2023/08/12 04:19:26;;;;;;;8.30;4.22;;;;;;;-144.73;100.00;54415.91;4981636;28;20038;-79
2023/08/12 04:21:52;;;;;;;7.78;4.13;;;;;;;-144.73;100.00;54370.75;4971849;28;20378;-76
2023/08/12 04:24:17;;;;;;;8.90;4.32;;;;;;;-144.73;100.00;54389.22;4980080;28;20453;-76
2023/08/12 04:26:42;;;;;;;9.38;4.00;;;;;;;-144.73;100.00;54358.44;4979337;28;20053;-77
2023/08/12 04:29:08;;;;;;;6.78;4.13;;;;;;;-144.73;100.00;54432.31;4970298;28;20034;-76
2023/08/12 04:31:33;;;;;;;12.13;4.25;;;;;;;-144.73;100.00;54415.91;4971965;28;20050;-77
2023/08/12 04:33:59;;;;;;;8.30;3.55;;;;;;;-144.73;100.00;54391.28;4975399;28;20473;-78
2023/08/12 04:36:24;;;;;;;6.40;4.10;;;;;;;-144.73;100.00;54434.38;4984055;28;20231;-78
2023/08/12 04:38:49;;;;;;;9.07;4.03;;;;;;;-144.73;100.00;54415.91;4988569;28;20202;-77
2023/08/12 04:41:15;;;;;;;11.93;4.47;;;;;;;-144.73;100.00;54378.97;4990160;28;20048;-77
2023/08/12 04:43:40;;;;;;;6.10;4.18;;;;;;;-144.73;100.00;54420.00;4988956;28;20040;-76
2023/08/12 04:46:06;;;;;;;6.50;4.00;;;;;;;-144.73;100.00;54413.84;4977259;28;20035;-77
2023/08/12 04:48:31;;;;;;;7.93;3.83;;;;;;;-144.73;100.00;54440.53;4972771;28;20027;-77
2023/08/12 04:51:01;;;;;;;11.35;4.10;;;;;;;-144.73;100.00;54393.34;4990733;28;20057;-77
2023/08/12 04:53:27;;;;;;;9.52;3.33;;;;;;;-144.73;100.00;54407.69;4982711;28;20061;-77
2023/08/12 04:55:54;;;;;;;8.85;3.65;;;;;;;-144.73;100.00;54378.97;4971610;28;20079;-76
2023/08/12 04:58:20;;;;;;;11.02;3.83;;;;;;;-144.73;100.00;54395.38;4985589;28;20037;-77
2023/08/12 05:00:45;;;;;;;7.55;3.72;;;;;;;-144.73;100.00;54417.97;4980393;28;20102;-77
2023/08/12 05:03:11;;;;;;;7.88;3.85;;;;;;;-144.73;100.00;54407.69;4984524;28;20025;-77
2023/08/12 05:05:36;;;;;;;7.50;3.67;;;;;;;-144.73;100.00;54387.19;4987667;28;20386;-77
2023/08/12 05:08:02;;;;;;;6.63;3.35;;;;;;;-144.73;100.00;54391.28;4989932;28;20022;-77
2023/08/12 05:10:27;;;;;;;7.90;4.10;;;;;;;-144.73;100.00;54411.81;4981170;28;20077;-76
2023/08/12 05:12:54;;;;;;;9.10;3.90;;;;;;;-144.73;100.00;54395.38;4973408;28;20026;-77
2023/08/12 05:15:19;;;;;;;7.03;3.38;;;;;;;-144.73;100.00;54411.81;4989642;28;20041;-77
2023/08/12 05:17:45;;;;;;;8.18;3.72;;;;;;;-144.73;100.00;54395.38;4978474;28;20405;-78
2023/08/12 05:20:10;;;;;;;10.10;3.63;;;;;;;-144.73;100.00;54420.00;4969668;28;20031;-77
2023/08/12 05:22:36;;;;;;;8.15;3.83;;;;;;;-144.73;100.00;54370.75;4970737;28;20019;-76
2023/08/12 05:25:01;;;;;;;6.68;4.10;;;;;;;-144.73;100.00;54391.28;4970362;28;20031;-77
2023/08/12 05:27:26;;;;;;;7.97;4.10;;;;;;;-144.73;100.00;54413.84;4972226;28;20029;-77
2023/08/12 05:29:52;;;;;;;16.83;3.92;;;;;;;-144.73;100.00;54399.50;4969005;28;20030;-78
2023/08/12 05:32:17;;;;;;;36.72;26.00;;;;;;;-144.73;100.00;54411.81;4968105;28;20023;-77
2023/08/12 05:34:42;;;;;;;8.65;4.35;;;;;;;-144.73;100.00;54432.31;4969197;28;20169;-77
2023/08/12 05:37:08;;;;;;;7.50;3.30;;;;;;;-144.73;100.00;54417.97;4966164;28;20102;-78
2023/08/12 05:39:34;;;;;;;11.18;4.03;;;;;;;-144.73;100.00;54387.19;4975580;28;20026;-77
2023/08/12 05:41:59;;;;;;;8.45;3.67;;;;;;;-144.73;100.00;54407.69;4976530;28;20018;-77
2023/08/12 05:44:25;;;;;;;6.75;4.00;;;;;;;-144.73;100.00;54432.31;4980686;28;20030;-77
2023/08/12 05:46:50;;;;;;;8.15;4.00;;;;;;;-144.73;100.00;54395.38;4981064;28;20029;-77
2023/08/12 05:49:15;;;;;;;12.07;4.20;;;;;;;-144.73;100.00;54378.97;4982212;28;20043;-77
2023/08/12 05:51:41;;;;;;;7.95;4.22;;;;;;;-144.73;100.00;54428.22;4980255;28;20037;-77
2023/08/12 05:54:07;;;;;;;9.98;4.47;;;;;;;-144.73;100.00;54399.50;4969765;28;20030;-76
2023/08/12 05:56:32;;;;;;;7.10;4.03;;;;;;;-144.73;100.00;54440.53;4981677;28;20050;-75
2023/08/12 05:58:58;;;;;;;9.88;4.60;;;;;;;-144.73;100.00;54387.19;4977366;28;20362;-75
2023/08/12 06:01:23;;;;;;;7.57;5.05;;;;;;;-144.73;100.00;54374.84;4975843;28;20086;-78
2023/08/12 06:03:48;;;;;;;10.27;4.50;;;;;;;-144.73;100.00;54415.91;4981178;28;20022;-74
2023/08/12 06:06:13;;;;;;;11.07;5.28;;;;;;;-144.73;100.00;54436.44;4969696;28;20026;-75
2023/08/12 06:08:39;;;;;;;13.02;4.90;;;;;;;-144.73;100.00;54393.34;4978502;28;20045;-73
2023/08/12 06:11:04;;;;;;;10.93;5.07;;;;;;;-144.73;100.00;54378.97;4986862;28;20038;-74
2023/08/12 06:13:30;;;;;;;10.90;5.95;;;;;;;-144.73;100.00;54407.69;4989683;28;20022;-74
2023/08/12 06:15:55;;;;;;;10.65;4.97;;;;;;;-144.73;100.00;54397.44;4972316;28;20051;-75
2023/08/12 06:18:21;;;;;;;9.05;5.35;;;;;;;-144.73;100.00;54391.28;4970408;28;20058;-75
2023/08/12 06:20:46;;;;;;;8.48;5.53;;;;;;;-144.73;100.00;54407.69;4972357;28;20434;-76
2023/08/12 06:23:11;;;;;;;15.27;6.38;;;;;;;-144.73;100.00;54440.53;4978030;28;20378;-76
2023/08/12 06:25:37;;;;;;;12.20;6.47;;;;;;;-144.73;100.00;54426.16;4984961;28;20057;-75
2023/08/12 06:28:04;;;;;;;9.98;6.20;;;;;;;-144.73;100.00;54424.13;4977466;28;20045;-76
2023/08/12 06:30:30;;;;;;;17.77;6.18;;;;;;;-144.73;100.00;54391.28;4978399;28;20023;-76
2023/08/12 06:32:55;;;;;;;10.45;6.25;;;;;;;-144.73;100.00;54407.69;4982979;28;20045;-76
2023/08/12 06:35:21;;;;;;;8.88;5.57;;;;;;;-144.73;100.00;54391.28;4981167;28;20034;-76
2023/08/12 06:37:47;;;;;;;11.38;6.75;;;;;;;-144.73;100.00;54387.19;4986610;28;20033;-76
2023/08/12 06:40:12;;;;;;;13.07;6.60;;;;;;;-144.73;100.00;54420.00;4975078;28;20139;-76
2023/08/12 06:42:37;;;;;;;12.68;7.20;;;;;;;-144.73;100.00;54436.44;4981271;28;20022;-76
2023/08/12 06:45:03;;;;;;;15.60;7.15;;;;;;;-144.73;100.00;54420.00;4986850;28;20058;-78
2023/08/12 06:47:29;;;;;;;15.30;6.72;;;;;;;-144.73;100.00;54446.69;4990901;28;20018;-79
2023/08/12 06:49:55;;;;;;;15.43;6.68;;;;;;;-144.73;100.00;54399.50;4995660;28;20049;-80
2023/08/12 06:52:21;;;;;;;15.60;6.43;;;;;;;-144.73;100.00;54415.91;4991123;28;20018;-79
2023/08/12 06:54:46;;;;;;;18.98;7.47;;;;;;;-144.73;100.00;54428.22;4986612;28;20035;-79
2023/08/12 06:57:11;;;;;;;13.73;8.10;;;;;;;-144.73;100.00;54426.16;4982299;28;20069;-76
2023/08/12 06:59:38;;;;;;;13.68;7.43;;;;;;;-144.73;100.00;54407.69;4984026;28;20026;-75
2023/08/12 07:02:03;;;;;;;16.50;9.52;;;;;;;-144.73;100.00;54407.69;4988725;28;20547;-75
2023/08/12 07:04:29;;;;;;;21.20;8.60;;;;;;;-144.73;100.00;54444.66;4982993;28;20114;-75
2023/08/12 07:06:55;;;;;;;15.73;7.43;;;;;;;-144.73;100.00;54424.13;4982822;28;20065;-76
2023/08/12 07:09:20;;;;;;;20.83;8.52;;;;;;;-144.73;100.00;54420.00;4981454;28;20030;-79
2023/08/12 07:11:45;;;;;;;13.50;8.15;;;;;;;-144.73;100.00;54436.44;4995343;28;20125;-79
2023/08/12 07:14:11;;;;;;;20.70;9.48;;;;;;;-144.73;100.00;54444.66;4990702;28;20034;-78
2023/08/12 07:16:36;;;;;;;16.25;9.45;;;;;;;-144.73;100.00;54428.22;4979336;28;20027;-77
2023/08/12 07:19:02;;;;;;;18.38;9.00;;;;;;;-144.73;100.00;54407.69;4981809;28;20037;-76
2023/08/12 07:21:27;;;;;;;23.45;9.93;;;;;;;-144.73;100.00;54436.44;4982713;28;20030;-75
2023/08/12 07:23:53;;;;;;;15.40;9.27;;;;;;;-144.73;100.00;54448.75;4978502;28;20054;-75
2023/08/12 07:26:18;;;;;;;12.52;9.15;;;;;;;-144.73;100.00;54391.28;4982618;28;20030;-75
2023/08/12 07:28:44;;;;;;;15.02;10.23;;;;;;;-144.73;100.00;54420.00;4980225;28;20145;-76
2023/08/12 07:31:09;;;;;;;15.32;9.57;;;;;;;-144.73;100.00;54407.69;4973533;28;20035;-75
2023/08/12 07:33:35;;;;;;;17.63;11.18;;;;;;;-144.73;100.00;54461.06;4990285;28;20026;-75
2023/08/12 07:36:01;;;;;;;23.10;14.05;;;;;;;-144.73;100.00;54446.69;4990477;28;20042;-76
2023/08/12 07:38:26;;;;;;;24.13;11.65;;;;;;;-144.73;100.00;54448.75;4985767;28;20030;-73
2023/08/12 07:40:52;;;;;;;14.52;9.57;;;;;;;-144.73;100.00;54383.06;4978697;28;20101;-73
2023/08/12 07:43:17;;;;;;;21.80;10.35;;;;;;;-144.73;100.00;54432.31;4979096;28;20027;-72
2023/08/12 07:45:42;;;;;;;23.38;10.75;;;;;;;-144.73;100.00;54428.22;4982155;28;20106;-71
2023/08/12 07:48:08;;;;;;;19.00;11.20;;;;;;;-144.73;100.00;54391.28;4982393;28;20481;-72
2023/08/12 07:50:34;;;;;;;18.90;10.90;;;;;;;-144.73;100.00;54420.00;4978400;28;20027;-72
2023/08/12 07:52:59;;;;;;;14.05;10.15;;;;;;;-144.73;100.00;54448.75;4980618;28;20040;-72
2023/08/12 07:55:25;;;;;;;14.50;9.82;;;;;;;-144.73;100.00;54432.31;4979655;28;20030;-72
2023/08/12 07:57:50;;;;;;;16.95;10.68;;;;;;;-144.73;100.00;54440.53;4980259;28;20018;-72
2023/08/12 08:00:16;;;;;;;16.85;10.68;;;;;;;-144.73;100.00;54395.38;4981052;28;20113;-72
2023/08/12 08:02:41;;;;;;;17.55;9.77;;;;;;;-144.73;100.00;54432.31;4981084;28;20019;-73
2023/08/12 08:05:07;;;;;;;19.27;9.70;;;;;;;-144.73;100.00;54420.00;4980978;28;20035;-74
2023/08/12 08:07:32;;;;;;;15.45;8.73;;;;;;;-144.73;100.00;54397.44;4980854;28;20014;-75
2023/08/12 08:09:58;;;;;;;18.90;11.70;;;;;;;-144.73;100.00;54411.81;4980437;28;20030;-76
2023/08/12 08:12:23;;;;;;;18.27;11.27;;;;;;;-144.73;100.00;54387.19;4981059;28;20162;-76
2023/08/12 08:14:49;;;;;;;15.88;11.52;;;;;;;-144.73;100.00;54422.06;4975365;28;20532;-75
2023/08/12 08:17:14;;;;;;;16.55;10.13;;;;;;;-144.73;100.00;54381.00;4984000;28;20110;-75
2023/08/12 08:19:40;;;;;;;18.77;10.98;;;;;;;-144.73;100.00;54391.28;4984653;28;20536;-75
2023/08/12 08:22:05;;;;;;;19.50;10.90;;;;;;;-144.73;100.00;54424.13;4982744;28;20057;-75
2023/08/12 08:24:30;;;;;;;15.43;11.10;;;;;;;-144.73;100.00;54372.81;4972623;28;20035;-77
2023/08/12 08:26:56;;;;;;;15.45;10.95;;;;;;;-144.73;100.00;54387.19;4975575;28;20029;-76
2023/08/12 08:29:22;;;;;;;23.95;11.10;;;;;;;-144.73;100.00;54432.31;4974416;28;20039;-76
2023/08/12 08:31:48;;;;;;;14.50;9.77;;;;;;;-144.73;100.00;54407.69;4978819;28;20030;-79
2023/08/12 08:34:15;;;;;;;19.65;11.30;;;;;;;-144.73;100.00;54374.84;4973844;28;20038;-78
2023/08/12 08:36:40;;;;;;;15.00;10.95;;;;;;;-144.73;100.00;54415.91;4976826;28;20030;-79
2023/08/12 08:39:06;;;;;;;20.20;11.05;;;;;;;-144.73;100.00;54407.69;4973255;28;20041;-77
2023/08/12 08:41:37;;;;;;;20.00;11.35;;;;;;;-144.73;100.00;54391.28;4980659;28;20014;-78
2023/08/12 08:44:07;;;;;;;16.65;11.32;;;;;;;-144.73;100.00;54387.19;4976211;28;20042;-78
2023/08/12 08:46:32;;;;;;;18.60;10.88;;;;;;;-144.73;100.00;54415.91;4975526;28;20031;-76
2023/08/12 08:49:01;;;;;;;17.92;11.18;;;;;;;-144.73;100.00;54432.31;4978552;28;20114;-76
2023/08/12 08:51:29;;;;;;;21.42;11.25;;;;;;;-144.73;100.00;54456.97;4985818;28;20109;-77
2023/08/12 08:53:56;;;;;;;17.60;11.07;;;;;;;-144.73;100.00;54452.84;4975462;28;20023;-78
2023/08/12 08:56:22;;;;;;;18.83;11.90;;;;;;;-144.73;100.00;54424.13;4991875;28;20105;-78
2023/08/12 08:58:47;;;;;;;19.73;10.52;;;;;;;-144.73;100.00;54387.19;4979399;28;20065;-78
2023/08/12 09:01:14;;;;;;;29.63;11.50;;;;;;;-144.73;100.00;54395.38;4986465;28;20046;-78
2023/08/12 09:03:40;;;;;;;20.75;11.25;;;;;;;-144.73;100.00;54389.22;4973073;28;20061;-78
2023/08/12 09:06:06;;;;;;;21.05;9.88;;;;;;;-144.73;100.00;54397.44;4980582;28;20027;-78
2023/08/12 09:08:33;;;;;;;18.73;10.93;;;;;;;-144.73;100.00;54428.22;4976709;28;20019;-78
2023/08/12 09:11:00;;;;;;;18.95;10.98;;;;;;;-144.73;100.00;54407.69;4971932;28;20129;-78
2023/08/12 09:13:25;;;;;;;24.42;11.45;;;;;;;-144.73;100.00;54448.75;4964556;28;20034;-77
2023/08/12 09:15:51;;;;;;;22.33;10.13;;;;;;;-144.73;100.00;54411.81;4971771;28;20031;-78
2023/08/12 09:18:17;;;;;;;15.50;9.90;;;;;;;-144.73;100.00;54407.69;4971549;28;20122;-77
2023/08/12 09:20:43;;;;;;;22.17;9.98;;;;;;;-144.73;100.00;54383.06;4974127;28;20078;-79
2023/08/12 09:23:10;;;;;;;21.27;11.63;;;;;;;-144.73;100.00;54376.91;4982875;28;20389;-78
2023/08/12 09:25:41;;;;;;;16.00;10.65;;;;;;;-144.73;100.00;54387.19;4980342;28;20034;-78
2023/08/12 09:28:09;;;;;;;16.67;10.05;;;;;;;-144.73;100.00;54409.75;4978467;28;20026;-78
2023/08/12 09:30:37;;;;;;;21.00;10.02;;;;;;;-144.73;100.00;54378.97;4976159;28;20047;-77
2023/08/12 09:33:07;;;;;;;20.23;11.18;;;;;;;-144.73;100.00;54383.06;4983768;28;20125;-78
2023/08/12 09:35:38;;;;;;;21.80;10.82;;;;;;;-144.73;100.00;54383.06;4975559;28;20030;-77
2023/08/12 09:38:05;;;;;;;15.60;9.23;;;;;;;-144.73;100.00;54440.53;4977408;28;20023;-76
2023/08/12 09:40:32;;;;;;;18.92;9.90;;;;;;;-144.73;100.00;54383.06;4977095;28;20081;-75
2023/08/12 09:42:58;;;;;;;22.35;10.50;;;;;;;-144.73;100.00;54415.91;4981599;28;20018;-76
2023/08/12 09:45:25;;;;;;;21.13;10.48;;;;;;;-144.73;100.00;54383.06;4981200;28;20039;-76
2023/08/12 09:47:52;;;;;;;18.02;11.00;;;;;;;-144.73;100.00;54415.91;4976859;28;20023;-76
2023/08/12 09:50:20;;;;;;;15.73;10.73;;;;;;;-144.73;100.00;54415.91;4976241;28;20089;-77
2023/08/12 09:52:46;;;;;;;20.70;10.07;;;;;;;-144.73;100.00;54411.81;4981550;28;20030;-77
2023/08/12 09:55:16;;;;;;;24.45;11.82;;;;;;;-144.73;100.00;54399.50;4980084;28;20363;-76
2023/08/12 09:57:52;;;;;;;17.33;10.60;;;;;;;-144.73;100.00;54420.00;4972796;28;20058;-77
2023/08/12 10:00:19;;;;;;;19.73;11.60;;;;;;;-144.73;100.00;54399.50;4966324;28;20539;-76
2023/08/12 10:02:51;;;;;;;23.65;12.70;;;;;;;-144.73;100.00;54383.06;4977261;28;20040;-78
2023/08/12 10:05:28;;;;;;;22.95;11.68;;;;;;;-144.73;100.00;54440.53;4977486;28;20069;-79
2023/08/12 10:07:54;;;;;;;18.85;10.95;;;;;;;-144.73;100.00;54452.84;4978818;28;20062;-76
2023/08/12 10:10:20;;;;;;;17.30;10.38;;;;;;;-144.73;100.00;54407.69;4981530;28;20054;-78
2023/08/12 10:12:47;;;;;;;21.05;12.00;;;;;;;-144.73;100.00;54432.31;4979581;28;20052;-77
2023/08/12 10:15:14;;;;;;;19.33;10.60;;;;;;;-144.73;100.00;54362.53;4977533;28;20073;-76
2023/08/12 10:17:41;;;;;;;19.58;10.27;;;;;;;-144.73;100.00;54422.06;4988172;28;20022;-77
2023/08/12 10:20:08;;;;;;;18.45;10.32;;;;;;;-144.73;100.00;54399.50;4982653;28;20050;-78
2023/08/12 10:22:36;;;;;;;14.73;10.23;;;;;;;-144.73;100.00;54395.38;4979900;28;20068;-78
2023/08/12 10:25:03;;;;;;;15.07;10.10;;;;;;;-144.73;100.00;54378.97;4975947;28;20027;-78
2023/08/12 10:27:29;;;;;;;18.77;9.90;;;;;;;-144.73;100.00;54424.13;4978284;28;20022;-78
2023/08/12 10:30:07;;;;;;;19.17;10.57;;;;;;;-144.73;100.00;54370.75;4989490;28;20112;-79
2023/08/12 10:32:34;;;;;;;17.88;10.38;;;;;;;-144.73;100.00;54411.81;4980062;28;20033;-77
2023/08/12 10:35:00;;;;;;;16.52;11.23;;;;;;;-144.73;100.00;54407.69;4984984;28;20038;-77
2023/08/12 10:37:26;;;;;;;20.15;11.15;;;;;;;-144.73;100.00;54385.13;4979897;28;20041;-79
2023/08/12 10:39:55;;;;;;;20.25;10.88;;;;;;;-144.73;100.00;54415.91;4979953;28;20478;-78
2023/08/12 10:42:39;;;;;;;17.00;10.23;;;;;;;-144.73;100.00;54407.69;4983270;28;20023;-78
2023/08/12 10:45:05;;;;;;;16.70;11.40;;;;;;;-144.73;100.00;54383.06;4976219;28;20039;-76
2023/08/12 10:47:32;;;;;;;15.00;9.93;;;;;;;-144.73;100.00;54366.66;4976649;28;20025;-76
2023/08/12 10:49:58;;;;;;;16.00;9.80;;;;;;;-144.73;100.00;54415.91;4980927;28;20520;-76
2023/08/12 10:52:27;;;;;;;19.77;9.55;;;;;;;-144.73;100.00;54385.13;4987072;28;20057;-76
2023/08/12 10:54:53;;;;;;;13.23;7.40;;;;;;;-144.73;100.00;54391.28;4977033;28;20101;-77
2023/08/12 10:57:18;;;;;;;10.82;5.60;;;;;;;-144.73;100.00;54391.28;4984817;28;20105;-76